createdAt,value
2023-01-10T00:00:25.512Z,97658.38
2023-01-10T00:04:28.750Z,97662.69
2023-01-10T00:08:30.983Z,97674.00
2023-01-10T00:12:51.718Z,97672.59
2023-01-10T00:16:53.803Z,97680.88
2023-01-10T00:20:56.914Z,97699.09
2023-01-10T00:25:00.514Z,97714.94
2023-01-10T00:29:04.227Z,97714.63
2023-01-10T00:33:07.106Z,97720.75
2023-01-10T00:37:09.476Z,97716.75
2023-01-10T00:41:31.579Z,97718.81
2023-01-10T00:45:33.698Z,97727.53
2023-01-10T00:49:35.761Z,97730.41
2023-01-10T00:53:37.814Z,97738.16
2023-01-10T00:57:39.996Z,97746.19
2023-01-10T01:01:42.180Z,97732.91
2023-01-10T01:05:45.524Z,97739.28
2023-01-10T01:10:06.291Z,97748.28
2023-01-10T01:14:08.665Z,97751.69
2023-01-10T01:18:13.355Z,97755.47
2023-01-10T01:22:15.642Z,97762.72
2023-01-10T01:26:18.476Z,97771.50
2023-01-10T01:30:21.589Z,97777.44
2023-01-10T01:34:24.432Z,97789.25
2023-01-10T01:38:27.062Z,97788.56
2023-01-10T01:42:32.320Z,97805.31
2023-01-10T01:46:38.609Z,97811.13
2023-01-10T01:51:07.992Z,97815.34
2023-01-10T01:55:11.780Z,97817.09
2023-01-10T01:59:22.529Z,97827.84
2023-01-10T02:03:26.495Z,97829.44
2023-01-10T02:07:34.572Z,97832.09
2023-01-10T02:11:36.647Z,97836.66
2023-01-10T02:15:38.857Z,97843.63
2023-01-10T02:19:55.095Z,97846.47
2023-01-10T02:24:44.422Z,97859.19
2023-01-10T02:29:51.304Z,97874.38
2023-01-10T02:34:09.407Z,97869.13
2023-01-10T02:38:39.267Z,97872.44
2023-01-10T02:43:26.775Z,97864.34
2023-01-10T02:47:36.393Z,97886.25
2023-01-10T02:51:38.502Z,97893.34
2023-01-10T02:56:08.865Z,97891.50
2023-01-10T03:00:38.981Z,97902.69
2023-01-10T03:04:57.245Z,97902.81
2023-01-10T03:09:08.700Z,97901.59
2023-01-10T03:13:41.383Z,97910.84
2023-01-10T03:17:51.720Z,97913.78
2023-01-10T03:21:57.570Z,97934.16
2023-01-10T03:26:01.104Z,97929.84
2023-01-10T03:30:27.944Z,97936.13
2023-01-10T03:34:31.895Z,97943.41
2023-01-10T03:38:53.028Z,97950.06
2023-01-10T03:43:23.923Z,97959.78
2023-01-10T03:47:31.091Z,97958.38
2023-01-10T03:51:34.484Z,97964.41
2023-01-10T03:55:37.343Z,97962.38
2023-01-10T03:59:39.387Z,97965.66
2023-01-10T04:03:41.587Z,97967.66
2023-01-10T04:07:43.702Z,97970.75
2023-01-10T04:11:46.065Z,97992.88
2023-01-10T04:15:48.150Z,98003.44
2023-01-10T04:19:50.285Z,98009.50
2023-01-10T04:23:52.425Z,98014.97
2023-01-10T04:27:54.530Z,98015.41
2023-01-10T04:31:56.574Z,98021.97
2023-01-10T04:35:58.792Z,98018.03
2023-01-10T04:40:00.960Z,98032.31
2023-01-10T04:44:03.297Z,98029.75
2023-01-10T04:48:06.447Z,98037.03
2023-01-10T04:52:08.480Z,98043.16
2023-01-10T04:56:17.479Z,98058.56
2023-01-10T05:00:19.821Z,98055.94
2023-01-10T05:04:22.247Z,98063.97
2023-01-10T05:08:24.605Z,98067.50
2023-01-10T05:12:26.876Z,98074.97
2023-01-10T05:16:29.323Z,98089.16
2023-01-10T05:20:31.485Z,98097.94
2023-01-10T05:24:33.747Z,98096.97
2023-01-10T05:28:36.387Z,98118.09
2023-01-10T05:32:38.902Z,98121.75
2023-01-10T05:36:40.932Z,98134.53
2023-01-10T05:40:43.033Z,98135.59
2023-01-10T05:44:45.104Z,98144.75
2023-01-10T05:48:47.200Z,98148.59
2023-01-10T05:52:49.449Z,98150.41
2023-01-10T05:56:51.584Z,98161.38
2023-01-10T06:00:55.932Z,98161.59
2023-01-10T06:04:58.085Z,98173.06
2023-01-10T06:09:00.452Z,98191.88
2023-01-10T06:13:02.777Z,98196.38
2023-01-10T06:17:08.671Z,98195.78
2023-01-10T06:21:10.715Z,98202.44
2023-01-10T06:25:13.634Z,98217.09
2023-01-10T06:29:15.894Z,98225.63
2023-01-10T06:33:17.943Z,98228.53
2023-01-10T06:37:20.344Z,98243.25
2023-01-10T06:41:22.500Z,98234.91
2023-01-10T06:45:24.774Z,98234.72
2023-01-10T06:49:26.834Z,98251.69
2023-01-10T06:53:28.979Z,98247.34
2023-01-10T06:57:31.335Z,98259.91
2023-01-10T07:01:33.565Z,98278.22
2023-01-10T07:05:35.879Z,98284.88
2023-01-10T07:09:37.966Z,98294.34
2023-01-10T07:13:40.328Z,98301.78
2023-01-10T07:17:42.441Z,98301.34
2023-01-10T07:21:44.918Z,98308.94
2023-01-10T07:25:47.049Z,98308.31
2023-01-10T07:29:49.179Z,98310.81
2023-01-10T07:33:52.648Z,98310.13
2023-01-10T07:37:58.486Z,98321.03
2023-01-10T07:42:01.420Z,98329.34
2023-01-10T07:46:08.261Z,98337.38
2023-01-10T07:50:10.786Z,98336.69
2023-01-10T07:54:14.854Z,98344.34
2023-01-10T07:58:17.449Z,98339.84
2023-01-10T08:02:19.739Z,98355.59
2023-01-10T08:06:21.912Z,98361.78
2023-01-10T08:10:26.127Z,98362.81
2023-01-10T08:14:28.814Z,98361.47
2023-01-10T08:18:31.168Z,98377.50
2023-01-10T08:22:33.245Z,98385.81
2023-01-10T08:26:35.921Z,98393.09
2023-01-10T08:30:38.256Z,98395.31
2023-01-10T08:34:40.456Z,98403.88
2023-01-10T08:38:42.779Z,98400.75
2023-01-10T08:42:44.893Z,98414.34
2023-01-10T08:46:47.104Z,98415.72
2023-01-10T08:50:49.312Z,98430.78
2023-01-10T08:54:51.766Z,98438.06
2023-01-10T08:58:54.007Z,98431.81
2023-01-10T09:02:56.315Z,98443.88
2023-01-10T09:06:58.610Z,98454.38
2023-01-10T09:11:01.787Z,98449.97
2023-01-10T09:15:04.227Z,98476.13
2023-01-10T09:19:06.374Z,98476.63
2023-01-10T09:23:19.097Z,98470.56
2023-01-10T09:27:21.304Z,98487.56
2023-01-10T09:31:23.916Z,98489.72
2023-01-10T09:35:27.779Z,98502.84
2023-01-10T09:39:30.160Z,98507.31
2023-01-10T09:44:01.459Z,98517.88
2023-01-10T09:48:08.243Z,98512.00
2023-01-10T09:52:21.481Z,98517.53
2023-01-10T09:56:23.744Z,98523.25
2023-01-10T10:26:25.208Z,98508.47
2023-01-10T10:30:42.343Z,98515.00
2023-01-10T10:34:57.618Z,98517.63
2023-01-10T10:39:02.861Z,98512.88
2023-01-10T10:43:15.435Z,98523.38
2023-01-10T10:47:20.430Z,98515.03
2023-01-10T10:51:37.694Z,98526.00
2023-01-10T10:55:40.231Z,98522.91
2023-01-10T10:59:46.757Z,98523.97
2023-01-10T11:04:00.239Z,98527.41
2023-01-10T11:08:16.472Z,98530.69
2023-01-10T11:12:21.307Z,98522.97
2023-01-10T11:16:39.917Z,98529.16
2023-01-10T11:20:58.333Z,98529.97
2023-01-10T11:25:02.365Z,98535.41
2023-01-10T11:29:15.167Z,98529.69
2023-01-10T11:33:26.525Z,98524.44
2023-01-10T11:37:32.899Z,98523.25
2023-01-10T11:41:36.341Z,98510.75
2023-01-10T11:45:40.873Z,98508.97
2023-01-10T11:49:44.909Z,98514.94
2023-01-10T11:53:52.003Z,98510.00
2023-01-10T11:58:11.357Z,98511.88
2023-01-10T12:02:24.118Z,98500.50
2023-01-10T12:06:28.431Z,98505.59
2023-01-10T12:10:32.134Z,98505.09
2023-01-10T12:14:38.370Z,98512.56
2023-01-10T12:18:42.421Z,98505.13
2023-01-10T12:22:53.688Z,98517.91
2023-01-10T12:26:59.909Z,98509.91
2023-01-10T12:31:05.809Z,98507.50
2023-01-10T12:35:34.460Z,98512.28
2023-01-10T12:39:48.867Z,98511.22
2023-01-10T12:44:15.984Z,98517.31
2023-01-10T12:48:38.300Z,98519.13
2023-01-10T12:52:49.411Z,98518.56
2023-01-10T12:56:54.511Z,98511.91
2023-01-10T13:01:00.704Z,98511.31
2023-01-10T13:05:07.155Z,98513.09
2023-01-10T13:09:18.824Z,98500.84
2023-01-10T13:13:42.615Z,98510.13
2023-01-10T13:17:57.923Z,98503.94
2023-01-10T13:22:20.719Z,98504.91
2023-01-10T13:26:23.135Z,98509.03
2023-01-10T13:30:29.509Z,98522.44
2023-01-10T13:34:36.195Z,98524.00
2023-01-10T13:38:59.384Z,98543.72
2023-01-10T13:43:36.647Z,98554.97
2023-01-10T13:47:44.673Z,98567.56
2023-01-10T13:52:24.674Z,98583.97
2023-01-10T13:56:30.117Z,98580.28
2023-01-10T14:00:53.968Z,98590.97
2023-01-10T14:05:17.661Z,98595.53
2023-01-10T14:09:20.653Z,98589.63
2023-01-10T14:13:23.382Z,98606.53
2023-01-10T14:17:31.604Z,98599.00
2023-01-10T14:21:44.671Z,98604.38
2023-01-10T14:25:55.565Z,98603.28
2023-01-10T14:30:01.070Z,98609.72
2023-01-10T14:34:05.908Z,98615.34
2023-01-10T14:38:14.623Z,98623.59
2023-01-10T14:42:18.578Z,98627.38
2023-01-10T14:46:26.354Z,98633.59
2023-01-10T14:50:32.691Z,98631.72
2023-01-10T14:54:35.573Z,98638.44
2023-01-10T14:58:37.744Z,98642.75
2023-01-10T15:02:45.951Z,98644.38
2023-01-10T15:07:00.172Z,98643.91
2023-01-10T15:11:06.735Z,98651.66
2023-01-10T15:15:16.811Z,98657.03
2023-01-10T15:19:22.153Z,98659.75
2023-01-10T15:23:27.372Z,98668.59
2023-01-10T15:27:31.097Z,98686.19
2023-01-10T15:31:37.921Z,98680.06
2023-01-10T15:35:43.545Z,98689.91
2023-01-10T15:39:48.291Z,98697.31
2023-01-10T15:43:52.095Z,98701.06
2023-01-10T15:48:03.006Z,98711.41
2023-01-10T15:52:21.040Z,98716.69
2023-01-10T15:56:47.219Z,98721.75
2023-01-10T16:00:52.119Z,98728.38
2023-01-10T16:04:57.658Z,98728.59
2023-01-10T16:09:07.202Z,98734.34
2023-01-10T16:13:31.717Z,98751.34
2023-01-10T16:17:33.917Z,98747.25
2023-01-10T16:21:41.136Z,98758.16
2023-01-10T16:26:06.341Z,98762.75
2023-01-10T16:30:23.294Z,98763.50
2023-01-10T16:34:26.052Z,98774.84
2023-01-10T16:38:29.274Z,98780.22
2023-01-10T16:42:49.834Z,98786.72
2023-01-10T16:46:53.619Z,98794.28
2023-01-10T16:51:04.298Z,98801.75
2023-01-10T16:55:20.080Z,98802.63
2023-01-10T16:59:23.590Z,98812.06
2023-01-10T17:03:26.503Z,98815.22
2023-01-10T17:07:28.718Z,98824.00
2023-01-10T17:11:42.399Z,98830.97
2023-01-10T17:15:44.566Z,98844.53
2023-01-10T17:19:47.829Z,98853.41
2023-01-10T17:23:50.812Z,98857.91
2023-01-10T17:27:52.863Z,98865.81
2023-01-10T17:31:54.973Z,98875.69
2023-01-10T17:35:57.378Z,98883.59
2023-01-10T17:39:59.460Z,98880.28
2023-01-10T17:44:02.181Z,98883.19
2023-01-10T17:48:04.401Z,98881.34
2023-01-10T17:52:06.546Z,98889.47
2023-01-10T17:56:09.423Z,98896.03
2023-01-10T18:00:13.073Z,98899.19
2023-01-10T18:04:15.133Z,98902.16
2023-01-10T18:08:17.598Z,98906.03
2023-01-10T18:12:19.743Z,98916.78
2023-01-10T18:16:22.346Z,98924.56
2023-01-10T18:20:24.854Z,98928.25
2023-01-10T18:24:27.072Z,98928.56
2023-01-10T18:28:40.941Z,98931.41
2023-01-10T18:32:43.711Z,98936.69
2023-01-10T18:36:45.787Z,98951.47
2023-01-10T18:40:52.172Z,98949.47
2023-01-10T18:44:56.678Z,98953.00
2023-01-10T18:48:59.665Z,98953.28
2023-01-10T18:53:01.942Z,98959.56
2023-01-10T18:57:04.175Z,98966.63
2023-01-10T19:01:07.466Z,98970.88
2023-01-10T19:05:10.020Z,98969.69
2023-01-10T19:09:12.113Z,98962.00
2023-01-10T19:13:14.333Z,98965.19
2023-01-10T19:17:18.342Z,98962.38
2023-01-10T19:21:21.114Z,98960.75
2023-01-10T19:25:23.468Z,98963.56
2023-01-10T19:29:25.579Z,98970.78
2023-01-10T19:33:27.943Z,98975.00
2023-01-10T19:37:31.635Z,98977.47
2023-01-10T19:41:37.118Z,98987.78
2023-01-10T19:45:41.673Z,99000.94
2023-01-10T19:49:44.874Z,99001.75
2023-01-10T19:53:48.125Z,99002.72
2023-01-10T19:57:50.541Z,99009.06
2023-01-10T20:01:52.848Z,99008.97
2023-01-10T20:05:55.041Z,99017.84
2023-01-10T20:09:57.946Z,99017.22
2023-01-10T20:14:00.141Z,99021.94
2023-01-10T20:18:02.961Z,99023.09
2023-01-10T20:22:05.077Z,99017.03
2023-01-10T20:26:19.051Z,99017.03
2023-01-10T20:30:21.592Z,99023.03
2023-01-10T20:34:24.029Z,99023.94
2023-01-10T20:38:27.462Z,99029.59
2023-01-10T20:42:29.733Z,99031.91
2023-01-10T20:46:33.008Z,99020.69
2023-01-10T20:50:35.507Z,99014.19
2023-01-10T20:54:38.878Z,99026.25
2023-01-10T20:58:41.759Z,99025.47
2023-01-10T21:02:43.898Z,99030.72
2023-01-10T21:06:46.156Z,99037.78
2023-01-10T21:10:50.623Z,99031.03
2023-01-10T21:14:53.871Z,99039.72
2023-01-10T21:18:56.165Z,99037.69
2023-01-10T21:22:59.927Z,99036.09
2023-01-10T21:27:02.247Z,99035.34
2023-01-10T21:31:05.996Z,99032.84
2023-01-10T21:35:08.345Z,99030.19
2023-01-10T21:39:10.472Z,99039.88
2023-01-10T21:43:12.679Z,99049.84
2023-01-10T21:47:14.848Z,99041.97
2023-01-10T21:51:16.960Z,99041.97
2023-01-10T21:55:19.207Z,99038.41
2023-01-10T21:59:21.348Z,99036.75
2023-01-10T22:03:23.566Z,99042.84
2023-01-10T22:07:28.422Z,99053.66
2023-01-10T22:11:30.612Z,99054.06
2023-01-10T22:15:32.751Z,99058.25
2023-01-10T22:19:35.042Z,99063.75
2023-01-10T22:23:37.283Z,99072.44
2023-01-10T22:27:39.461Z,99055.88
2023-01-10T22:31:41.984Z,99055.97
2023-01-10T22:35:44.025Z,99053.72
2023-01-10T22:39:48.353Z,99054.25
2023-01-10T22:43:52.061Z,99057.78
2023-01-10T22:47:54.112Z,99063.00
2023-01-10T22:51:56.247Z,99067.72
2023-01-10T22:56:06.786Z,99062.97
2023-01-10T23:00:09.968Z,99068.81
2023-01-10T23:04:12.178Z,99065.66
2023-01-10T23:08:14.676Z,99073.06
2023-01-10T23:12:17.264Z,99065.34
2023-01-10T23:16:22.622Z,99073.63
2023-01-10T23:20:25.618Z,99072.81
2023-01-10T23:24:27.764Z,99076.63
2023-01-10T23:28:46.847Z,99082.78
2023-01-10T23:32:51.272Z,99079.25
2023-01-10T23:36:53.396Z,99076.81
2023-01-10T23:40:55.533Z,99078.34
2023-01-10T23:44:57.572Z,99082.72
2023-01-10T23:48:59.613Z,99076.66
2023-01-10T23:53:01.815Z,99087.41
2023-01-10T23:57:03.927Z,99081.47
